createdAt,value
2024-02-06T00:01:52.413Z,11.02
2024-02-06T00:04:19.584Z,10.70
2024-02-06T00:06:46.349Z,9.98
2024-02-06T00:09:13.084Z,9.05
2024-02-06T00:11:39.950Z,7.68
2024-02-06T00:14:06.908Z,10.00
2024-02-06T00:16:33.565Z,14.37
2024-02-06T00:19:00.214Z,12.10
2024-02-06T00:21:26.817Z,7.63
2024-02-06T00:23:53.340Z,16.05
2024-02-06T00:26:20.031Z,12.32
2024-02-06T00:28:47.580Z,9.83
2024-02-06T00:31:14.388Z,7.60
2024-02-06T00:33:41.220Z,7.95
2024-02-06T00:36:08.174Z,10.70
2024-02-06T00:38:34.818Z,13.98
2024-02-06T00:41:01.396Z,9.37
2024-02-06T00:43:28.792Z,8.48
2024-02-06T00:45:55.601Z,9.02
2024-02-06T00:48:22.340Z,7.15
2024-02-06T00:50:49.271Z,10.35
2024-02-06T00:53:15.918Z,11.40
2024-02-06T00:55:42.658Z,8.88
2024-02-06T00:58:10.102Z,11.05
2024-02-06T01:00:37.674Z,15.75
2024-02-06T01:03:04.449Z,11.80
2024-02-06T01:05:31.032Z,5.47
2024-02-06T01:07:59.374Z,8.00
2024-02-06T01:10:26.236Z,8.25
2024-02-06T01:12:52.953Z,12.00
2024-02-06T01:15:19.645Z,4.75
2024-02-06T01:17:46.337Z,12.97
2024-02-06T01:20:13.173Z,10.90
2024-02-06T01:22:40.061Z,10.88
2024-02-06T01:25:06.905Z,8.02
2024-02-06T01:27:33.480Z,14.85
2024-02-06T01:30:02.618Z,10.87
2024-02-06T01:32:29.283Z,12.38
2024-02-06T01:34:56.280Z,8.43
2024-02-06T01:37:22.904Z,14.27
2024-02-06T01:39:49.528Z,15.65
2024-02-06T01:42:16.175Z,15.33
2024-02-06T01:44:42.783Z,13.13
2024-02-06T01:47:09.951Z,7.25
2024-02-06T01:49:37.782Z,8.70
2024-02-06T01:52:05.855Z,8.27
2024-02-06T01:54:32.435Z,9.83
2024-02-06T01:56:59.279Z,6.35
2024-02-06T01:59:26.464Z,9.93
2024-02-06T02:01:53.953Z,10.95
2024-02-06T02:04:20.936Z,14.35
2024-02-06T02:06:48.281Z,8.97
2024-02-06T02:09:15.047Z,8.68
2024-02-06T02:11:41.639Z,15.57
2024-02-06T02:14:08.559Z,15.43
2024-02-06T02:16:35.308Z,12.65
2024-02-06T02:19:02.056Z,11.80
2024-02-06T02:21:30.754Z,17.05
2024-02-06T02:23:57.548Z,9.90
2024-02-06T02:26:24.850Z,12.68
2024-02-06T02:28:52.958Z,9.88
2024-02-06T02:31:21.608Z,13.33
2024-02-06T02:33:48.660Z,12.95
2024-02-06T02:36:15.974Z,9.65
2024-02-06T02:38:43.442Z,10.13
2024-02-06T02:41:10.038Z,11.85
2024-02-06T02:43:36.797Z,18.00
2024-02-06T02:46:03.992Z,11.27
2024-02-06T02:48:30.876Z,9.55
2024-02-06T02:50:57.546Z,13.15
2024-02-06T02:53:24.121Z,12.05
2024-02-06T02:55:50.803Z,22.60
2024-02-06T02:58:17.765Z,12.18
2024-02-06T03:00:44.500Z,7.25
2024-02-06T03:03:11.244Z,10.23
2024-02-06T03:05:39.088Z,18.45
2024-02-06T03:08:06.247Z,11.93
2024-02-06T03:10:33.061Z,18.23
2024-02-06T03:12:59.671Z,11.80
2024-02-06T03:15:27.025Z,15.40
2024-02-06T03:17:55.646Z,11.88
2024-02-06T03:20:22.625Z,6.97
2024-02-06T03:22:49.971Z,9.65
2024-02-06T03:25:17.073Z,13.73
2024-02-06T03:27:44.722Z,9.10
2024-02-06T03:30:12.087Z,14.55
2024-02-06T03:32:39.647Z,14.73
2024-02-06T03:35:08.418Z,11.65
2024-02-06T03:37:35.670Z,8.10
2024-02-06T03:40:02.463Z,7.40
2024-02-06T03:42:29.129Z,12.73
2024-02-06T03:44:55.741Z,11.73
2024-02-06T03:47:22.702Z,12.32
2024-02-06T03:49:49.500Z,13.30
2024-02-06T03:52:16.248Z,16.75
2024-02-06T03:54:42.874Z,17.00
2024-02-06T03:57:09.498Z,16.20
2024-02-06T03:59:36.588Z,13.07
2024-02-06T04:02:04.553Z,11.38
2024-02-06T04:04:31.630Z,11.38
2024-02-06T04:06:58.452Z,15.70
2024-02-06T04:09:25.158Z,12.60
2024-02-06T04:11:51.815Z,13.45
2024-02-06T04:14:18.508Z,15.43
2024-02-06T04:16:45.721Z,9.73
2024-02-06T04:19:12.832Z,17.33
2024-02-06T04:21:39.678Z,10.17
2024-02-06T04:24:09.612Z,20.50
2024-02-06T04:26:36.816Z,13.65
2024-02-06T04:29:03.390Z,10.13
2024-02-06T04:31:29.978Z,9.85
2024-02-06T04:33:56.747Z,17.33
2024-02-06T04:36:24.147Z,13.50
2024-02-06T04:38:51.195Z,13.75
2024-02-06T04:41:17.810Z,7.88
2024-02-06T04:43:44.972Z,15.52
2024-02-06T04:46:11.738Z,13.20
2024-02-06T04:48:38.506Z,16.05
2024-02-06T04:51:05.205Z,13.35
2024-02-06T04:53:32.875Z,15.40
2024-02-06T04:56:00.977Z,11.77
2024-02-06T04:58:27.797Z,15.53
2024-02-06T05:00:54.589Z,15.90
2024-02-06T05:03:21.296Z,18.50
2024-02-06T05:05:47.910Z,11.82
2024-02-06T05:08:14.637Z,11.90
2024-02-06T05:10:41.868Z,12.17
2024-02-06T05:13:08.941Z,13.43
2024-02-06T05:15:35.533Z,13.48
2024-02-06T05:18:02.318Z,19.38
2024-02-06T05:20:29.554Z,10.77
2024-02-06T05:22:56.153Z,13.93
2024-02-06T05:25:24.760Z,16.20
2024-02-06T05:27:51.881Z,13.50
2024-02-06T05:30:19.572Z,8.88
2024-02-06T05:32:46.298Z,14.55
2024-02-06T05:35:13.287Z,8.37
2024-02-06T05:37:40.243Z,16.63
2024-02-06T05:40:08.597Z,13.57
2024-02-06T05:42:35.283Z,14.60
2024-02-06T05:45:01.857Z,14.95
2024-02-06T05:47:28.947Z,13.67
2024-02-06T05:49:55.914Z,20.95
2024-02-06T05:52:22.863Z,16.08
2024-02-06T05:54:49.694Z,9.23
2024-02-06T05:57:16.359Z,15.88
2024-02-06T05:59:42.941Z,17.40
2024-02-06T06:02:09.791Z,16.67
2024-02-06T06:04:36.761Z,13.30
2024-02-06T06:07:03.659Z,12.57
2024-02-06T06:09:30.641Z,10.27
2024-02-06T06:11:57.365Z,13.87
2024-02-06T06:14:23.992Z,13.55
2024-02-06T06:16:50.547Z,13.48
2024-02-06T06:19:17.204Z,12.68
2024-02-06T06:21:44.244Z,14.50
2024-02-06T06:24:11.146Z,16.90
2024-02-06T06:26:38.707Z,12.88
2024-02-06T06:29:05.584Z,13.23
2024-02-06T06:31:32.256Z,11.40
2024-02-06T06:33:59.073Z,18.33
2024-02-06T06:36:25.804Z,16.60
2024-02-06T06:38:53.004Z,12.23
2024-02-06T06:41:19.601Z,8.35
2024-02-06T06:43:46.397Z,11.82
2024-02-06T06:46:13.174Z,12.82
2024-02-06T06:48:39.907Z,13.10
2024-02-06T06:51:06.984Z,16.98
2024-02-06T06:53:33.580Z,15.27
2024-02-06T06:56:00.237Z,12.82
2024-02-06T06:58:26.965Z,12.30
2024-02-06T07:00:54.428Z,13.13
2024-02-06T07:03:21.329Z,14.23
2024-02-06T07:05:52.487Z,13.25
2024-02-06T07:08:19.241Z,14.20
2024-02-06T07:10:45.924Z,16.75
2024-02-06T07:13:12.889Z,16.93
2024-02-06T07:15:39.560Z,21.02
2024-02-06T07:18:06.473Z,13.70
2024-02-06T07:20:33.212Z,9.80
2024-02-06T07:22:59.825Z,15.40
2024-02-06T07:25:26.545Z,12.40
2024-02-06T07:27:53.201Z,18.30
2024-02-06T07:30:27.707Z,10.27
2024-02-06T07:33:00.889Z,14.90
2024-02-06T07:35:27.550Z,11.45
2024-02-06T07:37:54.474Z,9.70
2024-02-06T07:40:20.995Z,14.05
2024-02-06T07:42:50.837Z,14.90
2024-02-06T07:45:17.606Z,7.78
2024-02-06T07:47:45.102Z,9.13
2024-02-06T07:50:12.028Z,8.50
2024-02-06T07:52:38.817Z,8.65
2024-02-06T07:55:06.104Z,12.98
2024-02-06T07:57:32.785Z,13.18
2024-02-06T07:59:59.336Z,12.65
2024-02-06T08:02:26.353Z,11.73
2024-02-06T08:04:54.588Z,11.80
2024-02-06T08:07:22.068Z,9.90
2024-02-06T08:09:49.051Z,18.58
2024-02-06T08:12:15.693Z,8.90
2024-02-06T08:14:43.221Z,18.60
2024-02-06T08:17:09.840Z,11.00
2024-02-06T08:19:36.523Z,14.15
2024-02-06T08:22:03.285Z,10.43
2024-02-06T08:24:29.875Z,9.35
2024-02-06T08:26:56.892Z,9.47
2024-02-06T08:29:23.651Z,16.90
2024-02-06T08:31:50.876Z,24.15
2024-02-06T08:34:17.880Z,14.18
2024-02-06T08:36:44.680Z,13.20
2024-02-06T08:39:11.320Z,6.50
2024-02-06T08:41:38.039Z,10.73
2024-02-06T08:44:04.921Z,14.98
2024-02-06T08:46:31.571Z,10.93
2024-02-06T08:48:58.562Z,8.25
2024-02-06T08:51:25.315Z,11.93
2024-02-06T08:53:51.936Z,12.63
2024-02-06T08:56:18.567Z,7.70
2024-02-06T08:58:46.762Z,12.68
2024-02-06T09:01:13.886Z,11.02
2024-02-06T09:03:40.682Z,13.97
2024-02-06T09:06:07.791Z,14.45
2024-02-06T09:08:34.546Z,16.58
2024-02-06T09:11:01.264Z,18.98
2024-02-06T09:13:27.931Z,17.73
2024-02-06T09:15:54.549Z,13.20
2024-02-06T09:18:21.640Z,14.38
2024-02-06T09:20:48.829Z,13.68
2024-02-06T09:23:15.405Z,12.10
2024-02-06T09:25:44.855Z,13.07
2024-02-06T09:28:11.642Z,19.60
2024-02-06T09:30:40.871Z,21.90
2024-02-06T09:33:08.229Z,13.77
2024-02-06T09:35:34.950Z,19.35
2024-02-06T09:38:01.744Z,18.27
2024-02-06T09:40:28.428Z,16.97
2024-02-06T09:42:55.792Z,13.88
2024-02-06T09:45:22.506Z,18.00
2024-02-06T09:47:49.223Z,16.77
2024-02-06T09:50:15.935Z,13.27
2024-02-06T09:52:45.903Z,16.30
2024-02-06T09:55:16.697Z,12.93
2024-02-06T09:57:45.828Z,14.07
2024-02-06T10:00:15.320Z,11.07
2024-02-06T10:02:44.269Z,7.53
2024-02-06T10:05:18.860Z,9.20
2024-02-06T10:07:52.293Z,9.23
2024-02-06T10:10:20.521Z,8.43
2024-02-06T10:12:47.248Z,6.15
2024-02-06T10:15:28.407Z,11.65
2024-02-06T10:17:57.237Z,11.50
2024-02-06T10:20:23.983Z,9.18
2024-02-06T10:22:51.675Z,7.57
2024-02-06T10:25:19.089Z,11.55
2024-02-06T10:27:46.178Z,9.43
2024-02-06T10:30:13.081Z,8.33
2024-02-06T10:32:40.459Z,11.10
2024-02-06T10:35:09.164Z,9.77
2024-02-06T10:37:38.612Z,10.65
2024-02-06T10:40:10.653Z,10.55
2024-02-06T10:43:09.616Z,7.30
2024-02-06T10:45:24.894Z,7.65
2024-02-06T10:47:59.365Z,9.18
2024-02-06T10:50:29.928Z,8.52
2024-02-06T10:52:57.238Z,8.80
2024-02-06T10:55:24.430Z,10.33
2024-02-06T10:58:06.022Z,10.05
2024-02-06T11:00:38.151Z,11.00
2024-02-06T11:03:10.303Z,9.68
2024-02-06T11:05:50.205Z,17.80
2024-02-06T11:08:21.158Z,17.17
2024-02-06T11:10:53.004Z,12.00
2024-02-06T11:13:23.307Z,13.20
2024-02-06T11:15:52.991Z,7.72
2024-02-06T11:18:21.028Z,11.68
2024-02-06T11:20:52.082Z,12.53
2024-02-06T11:23:22.020Z,16.75
2024-02-06T11:25:50.251Z,7.50
2024-02-06T11:28:18.360Z,17.13
2024-02-06T11:30:46.245Z,22.25
2024-02-06T11:33:15.889Z,15.07
2024-02-06T11:35:42.713Z,15.73
2024-02-06T11:38:09.964Z,9.38
2024-02-06T11:40:36.830Z,10.98
2024-02-06T11:43:10.487Z,13.60
2024-02-06T11:45:38.915Z,8.67
2024-02-06T11:48:08.270Z,9.73
2024-02-06T11:50:42.678Z,14.20
2024-02-06T11:53:14.690Z,11.68
2024-02-06T11:55:42.901Z,17.00
2024-02-06T11:58:10.385Z,13.60
2024-02-06T12:00:37.786Z,16.00
2024-02-06T12:03:06.182Z,10.73
2024-02-06T12:05:42.188Z,10.35
2024-02-06T12:08:11.964Z,14.98
2024-02-06T12:10:40.245Z,8.17
2024-02-06T12:13:10.783Z,7.07
2024-02-06T12:15:39.003Z,8.07
2024-02-06T12:18:16.100Z,17.70
2024-02-06T12:20:43.319Z,8.02
2024-02-06T12:23:10.927Z,8.33
2024-02-06T12:25:43.956Z,13.48
2024-02-06T12:28:16.949Z,14.23
2024-02-06T12:30:46.508Z,10.18
2024-02-06T12:33:13.371Z,8.38
2024-02-06T12:35:40.435Z,11.77
2024-02-06T12:38:09.090Z,11.88
2024-02-06T12:40:40.372Z,13.38
2024-02-06T12:43:09.171Z,10.65
2024-02-06T12:45:36.457Z,12.70
2024-02-06T12:48:04.375Z,12.33
2024-02-06T12:50:31.507Z,13.35
2024-02-06T12:53:01.665Z,11.85
2024-02-06T12:55:30.621Z,11.25
2024-02-06T12:57:58.757Z,9.27
2024-02-06T13:00:25.773Z,7.30
2024-02-06T13:03:02.922Z,13.48
2024-02-06T13:05:32.221Z,7.43
2024-02-06T13:08:09.400Z,9.10
2024-02-06T13:10:36.629Z,6.80
2024-02-06T13:13:05.950Z,9.33
2024-02-06T13:15:33.696Z,9.93
2024-02-06T13:18:01.673Z,6.70
2024-02-06T13:20:32.137Z,6.78
2024-02-06T13:23:12.129Z,7.95
2024-02-06T13:25:39.454Z,7.07
2024-02-06T13:28:06.878Z,6.40
2024-02-06T13:30:36.454Z,5.35
2024-02-06T13:33:04.806Z,10.77
2024-02-06T13:35:31.623Z,11.57
2024-02-06T13:38:01.546Z,8.93
2024-02-06T13:40:28.603Z,6.28
2024-02-06T13:42:55.292Z,7.68
2024-02-06T13:45:21.975Z,8.45
2024-02-06T13:47:48.744Z,8.50
2024-02-06T13:50:15.515Z,14.33
2024-02-06T13:52:42.542Z,9.07
2024-02-06T13:55:11.210Z,17.65
2024-02-06T13:57:38.512Z,11.98
2024-02-06T14:00:06.744Z,11.65
2024-02-06T14:02:33.538Z,11.17
2024-02-06T14:05:00.357Z,10.13
2024-02-06T14:07:27.475Z,10.10
2024-02-06T14:09:54.103Z,8.77
2024-02-06T14:12:26.120Z,12.35
2024-02-06T14:14:53.578Z,27.07
2024-02-06T14:17:22.343Z,10.77
2024-02-06T14:19:50.194Z,7.68
2024-02-06T14:22:18.958Z,14.18
2024-02-06T14:24:45.785Z,14.95
2024-02-06T14:27:12.389Z,14.97
2024-02-06T14:29:39.047Z,11.07
2024-02-06T14:32:06.035Z,17.35
2024-02-06T14:34:32.803Z,17.40
2024-02-06T14:37:02.228Z,16.55
2024-02-06T14:39:29.170Z,21.33
2024-02-06T14:41:55.771Z,17.38
2024-02-06T14:44:29.668Z,15.10
2024-02-06T14:47:03.560Z,17.52
2024-02-06T14:49:30.271Z,19.40
2024-02-06T14:51:57.271Z,10.47
2024-02-06T14:54:25.141Z,15.57
2024-02-06T14:56:51.706Z,13.68
2024-02-06T14:59:18.303Z,17.25
2024-02-06T15:01:44.961Z,14.63
2024-02-06T15:04:11.750Z,15.67
2024-02-06T15:06:40.102Z,20.48
2024-02-06T15:09:07.871Z,15.32
2024-02-06T15:11:35.619Z,19.33
2024-02-06T15:14:02.420Z,17.85
2024-02-06T15:16:29.288Z,18.20
2024-02-06T15:18:55.942Z,14.30
2024-02-06T15:21:22.843Z,15.65
2024-02-06T15:23:49.577Z,16.50
2024-02-06T15:26:35.146Z,20.92
2024-02-06T15:29:02.369Z,18.70
2024-02-06T15:31:30.041Z,18.98
2024-02-06T15:33:56.993Z,16.58
2024-02-06T15:36:25.295Z,19.63
2024-02-06T15:38:55.466Z,17.63
2024-02-06T15:41:23.871Z,15.70
2024-02-06T15:43:50.679Z,19.50
2024-02-06T15:46:17.959Z,19.92
2024-02-06T15:48:46.815Z,17.15
2024-02-06T15:51:13.724Z,14.65
2024-02-06T15:53:40.959Z,8.63
2024-02-06T15:56:07.801Z,17.48
2024-02-06T15:58:34.533Z,14.00
2024-02-06T16:01:01.630Z,13.02
2024-02-06T16:03:28.332Z,19.02
2024-02-06T16:05:54.994Z,9.37
2024-02-06T16:08:21.768Z,14.80
2024-02-06T16:10:48.769Z,17.67
2024-02-06T16:13:18.613Z,26.83
2024-02-06T16:15:46.833Z,18.83
2024-02-06T16:18:13.924Z,20.90
2024-02-06T16:20:40.724Z,13.43
2024-02-06T16:23:10.495Z,15.23
2024-02-06T16:25:37.165Z,16.17
2024-02-06T16:28:04.104Z,15.80
2024-02-06T16:30:30.744Z,21.80
2024-02-06T16:32:57.400Z,14.95
2024-02-06T16:35:24.188Z,14.30
2024-02-06T16:37:51.082Z,13.07
2024-02-06T16:40:19.024Z,13.15
2024-02-06T16:42:46.195Z,18.37
2024-02-06T16:45:13.091Z,20.95
2024-02-06T16:47:40.003Z,11.80
2024-02-06T16:50:07.338Z,15.48
2024-02-06T16:52:34.164Z,15.20
2024-02-06T16:55:01.016Z,17.87
2024-02-06T16:57:27.677Z,15.93
2024-02-06T16:59:54.243Z,20.50
2024-02-06T17:02:21.162Z,21.30
2024-02-06T17:04:47.890Z,23.77
2024-02-06T17:07:14.761Z,15.17
2024-02-06T17:09:41.470Z,18.75
2024-02-06T17:12:08.149Z,21.75
2024-02-06T17:14:35.082Z,16.70
2024-02-06T17:17:01.793Z,17.95
2024-02-06T17:19:28.478Z,16.00
2024-02-06T17:21:55.193Z,10.98
2024-02-06T17:24:21.746Z,22.00
2024-02-06T17:26:48.379Z,15.02
2024-02-06T17:29:15.146Z,18.08
2024-02-06T17:31:41.982Z,18.65
2024-02-06T17:34:08.833Z,22.40
2024-02-06T17:36:39.673Z,19.70
2024-02-06T17:39:06.761Z,11.65
2024-02-06T17:41:33.377Z,14.93
2024-02-06T17:44:00.103Z,23.77
2024-02-06T17:46:26.831Z,12.63
2024-02-06T17:48:53.511Z,10.70
2024-02-06T17:51:20.068Z,11.88
2024-02-06T17:53:46.615Z,12.65
2024-02-06T17:56:13.209Z,13.13
2024-02-06T17:58:42.383Z,11.57
2024-02-06T18:01:10.362Z,13.18
2024-02-06T18:03:37.330Z,16.25
2024-02-06T18:06:04.139Z,15.32
2024-02-06T18:08:31.113Z,17.30
2024-02-06T18:10:57.908Z,15.83
2024-02-06T18:13:24.571Z,13.35
2024-02-06T18:15:51.301Z,16.35
2024-02-06T18:18:18.263Z,16.08
2024-02-06T18:20:44.972Z,14.23
2024-02-06T18:23:11.547Z,14.10
2024-02-06T18:25:38.350Z,13.63
2024-02-06T18:28:06.484Z,13.18
2024-02-06T18:30:35.258Z,10.23
2024-02-06T18:33:02.135Z,14.88
2024-02-06T18:35:28.910Z,14.90
2024-02-06T18:37:57.693Z,14.20
2024-02-06T18:40:24.359Z,12.77
2024-02-06T18:42:51.306Z,10.95
2024-02-06T18:45:18.043Z,16.48
2024-02-06T18:47:45.159Z,17.87
2024-02-06T18:50:11.913Z,11.95
2024-02-06T18:52:39.696Z,13.93
2024-02-06T18:55:12.656Z,17.17
2024-02-06T18:57:42.737Z,14.60
2024-02-06T19:00:10.893Z,15.30
2024-02-06T19:02:38.311Z,13.23
2024-02-06T19:05:05.897Z,8.18
2024-02-06T19:07:33.133Z,17.38
2024-02-06T19:10:00.328Z,14.55
2024-02-06T19:12:27.181Z,17.33
2024-02-06T19:14:53.957Z,13.90
2024-02-06T19:17:20.656Z,12.13
2024-02-06T19:19:48.598Z,17.73
2024-02-06T19:22:15.760Z,12.38
2024-02-06T19:24:42.897Z,28.90
2024-02-06T19:27:09.593Z,15.90
2024-02-06T19:29:36.212Z,11.70
2024-02-06T19:32:06.473Z,14.75
2024-02-06T19:34:34.756Z,11.65
2024-02-06T19:37:01.903Z,15.40
2024-02-06T19:39:28.587Z,16.65
2024-02-06T19:41:57.224Z,20.42
2024-02-06T19:44:23.994Z,11.00
2024-02-06T19:46:51.313Z,8.98
2024-02-06T19:49:18.374Z,17.27
2024-02-06T19:51:45.350Z,15.45
2024-02-06T19:54:12.055Z,14.07
2024-02-06T19:56:39.210Z,13.00
2024-02-06T19:59:05.748Z,10.23
2024-02-06T20:01:32.524Z,14.02
2024-02-06T20:04:01.007Z,12.90
2024-02-06T20:06:27.597Z,11.80
2024-02-06T20:08:55.042Z,13.27
2024-02-06T20:11:21.728Z,15.00
2024-02-06T20:13:48.486Z,16.02
2024-02-06T20:16:15.271Z,15.50
2024-02-06T20:18:41.998Z,19.07
2024-02-06T20:21:08.683Z,15.82
2024-02-06T20:23:39.060Z,17.40
2024-02-06T20:26:07.064Z,11.15
2024-02-06T20:28:34.003Z,15.35
2024-02-06T20:31:02.545Z,9.70
2024-02-06T20:33:29.435Z,10.52
2024-02-06T20:35:56.134Z,13.63
2024-02-06T20:38:22.756Z,15.95
2024-02-06T20:40:49.575Z,16.45
2024-02-06T20:43:16.222Z,14.30
2024-02-06T20:45:42.804Z,13.48
2024-02-06T20:48:10.252Z,18.10
2024-02-06T20:50:37.092Z,18.33
2024-02-06T20:53:04.921Z,11.85
2024-02-06T20:55:31.583Z,14.30
2024-02-06T20:57:58.889Z,12.68
2024-02-06T21:00:25.599Z,14.63
2024-02-06T21:02:52.756Z,14.85
2024-02-06T21:05:19.456Z,15.50
2024-02-06T21:07:47.218Z,14.52
2024-02-06T21:10:13.966Z,15.10
2024-02-06T21:12:40.981Z,18.75
2024-02-06T21:15:08.066Z,13.45
2024-02-06T21:17:35.478Z,15.73
2024-02-06T21:20:02.465Z,14.25
2024-02-06T21:22:29.250Z,16.10
2024-02-06T21:24:56.073Z,15.25
2024-02-06T21:27:22.674Z,16.25
2024-02-06T21:29:49.225Z,19.85
2024-02-06T21:32:15.817Z,16.00
2024-02-06T21:34:42.658Z,17.33
2024-02-06T21:37:09.795Z,15.02
2024-02-06T21:39:36.583Z,18.25
2024-02-06T21:42:04.365Z,3.58
2024-02-06T21:44:31.221Z,0.55
2024-02-06T21:46:58.260Z,1.13
2024-02-06T21:49:25.546Z,1.15
2024-02-06T21:51:52.365Z,1.77
2024-02-06T21:54:19.480Z,0.60
2024-02-06T21:56:46.928Z,1.20
2024-02-06T21:59:14.058Z,1.00
2024-02-06T22:01:44.745Z,1.52
2024-02-06T22:04:11.990Z,0.70
2024-02-06T22:06:38.896Z,2.05
2024-02-06T22:09:08.484Z,0.50
2024-02-06T22:11:35.829Z,0.80
2024-02-06T22:14:02.438Z,0.50
2024-02-06T22:16:29.360Z,0.50
2024-02-06T22:18:56.039Z,1.17
2024-02-06T22:21:22.778Z,0.95
2024-02-06T22:23:49.417Z,1.90
2024-02-06T22:26:16.081Z,3.08
2024-02-06T22:28:42.731Z,0.50
2024-02-06T22:31:09.711Z,0.80
2024-02-06T22:33:37.031Z,1.10
2024-02-06T22:36:03.942Z,0.90
2024-02-06T22:38:31.679Z,1.65
2024-02-06T22:40:59.188Z,1.25
2024-02-06T22:43:26.606Z,0.40
2024-02-06T22:45:53.231Z,0.85
2024-02-06T22:48:19.864Z,0.85
2024-02-06T22:50:46.491Z,0.95
2024-02-06T22:53:13.206Z,1.42
2024-02-06T22:55:39.767Z,0.40
2024-02-06T22:58:06.636Z,1.35
2024-02-06T23:00:33.738Z,1.00
2024-02-06T23:03:01.778Z,0.40
2024-02-06T23:05:28.429Z,1.00
2024-02-06T23:07:56.869Z,1.20
2024-02-06T23:10:23.656Z,0.85
2024-02-06T23:12:50.994Z,12.93
2024-02-06T23:15:23.591Z,1.88
2024-02-06T23:17:50.451Z,1.10
2024-02-06T23:20:17.498Z,18.45
2024-02-06T23:22:44.681Z,2.05
2024-02-06T23:25:11.719Z,0.70
2024-02-06T23:27:38.638Z,1.63
2024-02-06T23:30:07.480Z,0.50
2024-02-06T23:32:34.382Z,1.30
2024-02-06T23:35:01.200Z,0.47
2024-02-06T23:37:28.260Z,1.63
2024-02-06T23:39:54.899Z,0.65
2024-02-06T23:42:21.656Z,0.40
2024-02-06T23:44:48.310Z,2.05
2024-02-06T23:47:14.915Z,1.00
2024-02-06T23:49:41.690Z,0.70
2024-02-06T23:52:08.513Z,0.93
2024-02-06T23:54:36.896Z,0.63
2024-02-06T23:57:03.544Z,1.02
2024-02-06T23:59:30.323Z,0.57
